Hauptseite
METAR-TAF:

METAR-TAF

Flughäfen :

Flughafen Auckland

Auckland, Neuseeland

Breite: 37-01S, Länge: 174-48E, Höhe: 7 m

Beobachtung

Neuester Wetterbericht von vor 33 Minuten, um 08:00 UTC
Wind 7 kt aus Süd/Südost
Temperatur 10°C
Luftfeuchtigkeit 82%
Luftdruck 1015 hPa
Sichtweite 10 km oder mehr

METAR: NZAA 210800Z AUTO 15007KT 9999 NCD 10/07 Q1015 NOSIG

Zeit: 20:33 (08:33 UTC)

Prognose

Neuester Wetterbericht von vor 3 Stunden und 27 Minuten, um 05:06 UTC
Gültige Prognose vom 21 um 06 UTC bis 22 um 06 UTC
Wind 8 kt aus Südost
Sichtweite 10 km oder mehr
Leicht bewölkt in der Höhe von 3500 ft
Aufgelockert bewölkt in der Höhe von 5000 ft

TAF: NZAA 210506Z 2106/2206 14008KT 9999 FEW035 SCT050

Wetterbeobachtungen und Prognosen von mehr als 4000 Flughäfen (METAR und TAF Bericht).

Die verfügbaren Stationen werden durch gelbe und rote Markierungen auf der Karte dargestellt.

Führen Sie die Maus auf sie, um den Namen der Station zu sehen.

Darauf klicken, um die Beobachtung von Wetterbeobachtungen und Prognosen zu sehen.

Um die Karte zu ändern : klicken Sie auf den grünen Tasten mit einem schwarzen Kreuz Zum Vergrößern, auf den grünen Button mit einem Gedankenstrich zu verkleinern, oder auf die grünen Pfeile für benachbarte Karten.


METAR-TAF: